Terminal Aerodrome Forecast
Issued by NWS Austin/San Antonio, TX

Home | Current Version | Previous Version | Text Only | Print | Product List | Glossary On
Versions: 1 2 3 4 5 6 7 8 9 10 11 12 13 14 15 16 17 18
736
FTUS44 KEWX 282326
TAFSAT
TAF
KSAT 282326Z 2900/3006 17010KT P6SM SCT050
     FM290500 14013KT P6SM BKN012
     FM291800 16008KT P6SM BKN015
     FM292100 14006KT P6SM BKN035
     FM300100 VRB10G25KT P6SM VCTS BKN025CB=

USA.gov is the U.S. government's official web portal to all federal, state and local government web resources and services.